Time;durP1;ratioP1;P1;durP2;ratioP2;P2;SDS_P1;SDS_P2;PMS_P1;PMS_P2;Temp;Humidity;BMP_temperature;BMP_pressure;BME280_temperature;BME280_humidity;BME280_pressure;Samples;Min_cycle;Max_cycle;Signal;HPM_P1;HPM_P2
2022/11/22 00:00:57;;;;;;;22.02;3.47;;;;;;;5.62;100.00;99112.97;5205828;28;20022;-76
2022/11/22 00:03:28;;;;;;;16.70;3.63;;;;;;;5.61;100.00;99106.81;5206169;28;20021;-74
2022/11/22 00:05:58;;;;;;;29.48;3.08;;;;;;;5.63;100.00;99106.66;5205665;28;20048;-75
2022/11/22 00:08:29;;;;;;;23.15;3.63;;;;;;;5.64;100.00;99116.31;5205169;28;20483;-74
2022/11/22 00:10:59;;;;;;;23.75;4.55;;;;;;;5.61;100.00;99116.66;5205818;28;20029;-74
2022/11/22 00:13:29;;;;;;;26.60;3.95;;;;;;;5.65;100.00;99121.44;5206260;28;20360;-74
2022/11/22 00:16:02;;;;;;;28.52;3.63;;;;;;;5.70;100.00;99111.09;5205831;28;20025;-74
2022/11/22 00:18:32;;;;;;;19.27;3.38;;;;;;;5.71;100.00;99107.41;5206062;28;20021;-75
2022/11/22 00:21:05;;;;;;;24.20;4.50;;;;;;;5.73;100.00;99101.94;5205772;28;20442;-72
2022/11/22 00:23:35;;;;;;;21.98;3.85;;;;;;;5.69;100.00;99108.63;5205511;28;20040;-72
2022/11/22 00:26:10;;;;;;;27.83;3.67;;;;;;;5.66;100.00;99115.09;5204954;28;20025;-73
2022/11/22 00:28:41;;;;;;;18.10;3.20;;;;;;;5.65;100.00;99123.28;5191314;28;20329;-73
2022/11/22 00:31:11;;;;;;;23.38;4.57;;;;;;;5.59;100.00;99127.47;5201775;28;20335;-73
2022/11/22 00:33:42;;;;;;;30.15;3.60;;;;;;;5.56;100.00;99113.69;5204986;28;20033;-72
2022/11/22 00:36:12;;;;;;;18.30;3.30;;;;;;;5.54;100.00;99118.38;5204990;28;20018;-73
2022/11/22 00:38:43;;;;;;;39.25;5.63;;;;;;;5.54;100.00;99116.53;5204531;28;20112;-73
2022/11/22 00:41:14;;;;;;;26.90;4.00;;;;;;;5.58;100.00;99119.69;5205253;28;20017;-72
2022/11/22 00:43:44;;;;;;;14.93;3.60;;;;;;;5.50;100.00;99117.88;5204980;28;20029;-75
2022/11/22 00:46:14;;;;;;;26.33;4.00;;;;;;;5.48;100.00;99129.72;5204548;28;20442;-74
2022/11/22 00:48:45;;;;;;;23.60;5.30;;;;;;;5.44;100.00;99119.41;5204364;28;20390;-73
2022/11/22 00:51:15;;;;;;;28.30;4.25;;;;;;;5.42;100.00;99132.06;5204508;28;20471;-72
2022/11/22 00:53:46;;;;;;;24.40;3.85;;;;;;;5.39;100.00;99148.38;5204899;28;20523;-72
2022/11/22 00:56:16;;;;;;;27.42;3.92;;;;;;;5.36;100.00;99143.38;5204619;28;20060;-72
2022/11/22 00:58:47;;;;;;;28.63;4.45;;;;;;;5.37;100.00;99142.41;5204226;28;20083;-72
2022/11/22 01:01:17;;;;;;;29.30;4.47;;;;;;;5.34;100.00;99140.06;5204488;28;20026;-72
2022/11/22 01:03:47;;;;;;;20.35;4.05;;;;;;;5.30;100.00;99149.41;5204610;28;20050;-75
2022/11/22 01:06:18;;;;;;;14.00;4.00;;;;;;;5.30;100.00;99148.56;5204407;28;20104;-73
2022/11/22 01:08:48;;;;;;;19.55;2.88;;;;;;;5.29;100.00;99137.13;5203450;28;20033;-73
2022/11/22 01:11:19;;;;;;;20.25;2.80;;;;;;;5.32;100.00;99128.81;5204529;28;20028;-74
2022/11/22 01:13:49;;;;;;;23.95;3.22;;;;;;;5.36;100.00;99138.06;5204500;28;20021;-74
2022/11/22 01:16:20;;;;;;;25.15;4.05;;;;;;;5.33;100.00;99143.75;5204416;28;20031;-73
2022/11/22 01:18:50;;;;;;;14.07;3.42;;;;;;;5.33;100.00;99137.59;5203944;28;20102;-73
2022/11/22 01:21:21;;;;;;;26.25;3.60;;;;;;;5.28;100.00;99142.63;5204024;28;20049;-73
2022/11/22 01:23:51;;;;;;;27.15;3.72;;;;;;;5.28;100.00;99147.94;5204357;28;20116;-73
2022/11/22 01:26:22;;;;;;;17.45;3.38;;;;;;;5.28;100.00;99148.75;5203195;28;20104;-73
2022/11/22 01:28:52;;;;;;;23.75;3.53;;;;;;;5.27;100.00;99149.75;5190280;28;20501;-73
2022/11/22 01:31:23;;;;;;;21.60;3.28;;;;;;;5.24;100.00;99144.78;5200587;28;20302;-73
2022/11/22 01:33:53;;;;;;;19.55;2.78;;;;;;;5.20;100.00;99148.78;5203474;28;20029;-73
2022/11/22 01:36:24;;;;;;;24.42;4.68;;;;;;;5.18;100.00;99133.00;5203536;28;20100;-73
2022/11/22 01:38:54;;;;;;;18.42;3.60;;;;;;;5.18;100.00;99142.81;5203405;28;20018;-74
2022/11/22 01:41:25;;;;;;;14.20;2.78;;;;;;;5.15;100.00;99145.81;5204048;28;20507;-75
2022/11/22 01:43:55;;;;;;;20.02;2.25;;;;;;;5.15;100.00;99146.63;5204743;28;20079;-73
2022/11/22 01:46:33;;;;;;;26.67;4.07;;;;;;;5.14;100.00;99149.47;5203283;28;20479;-73
2022/11/22 01:49:20;;;;;;;23.02;3.28;;;;;;;5.09;100.00;99155.31;5203812;28;20399;-74
2022/11/22 01:51:55;;;;;;;16.83;4.03;;;;;;;5.05;100.00;99156.66;5191137;28;20141;-75
2022/11/22 01:54:31;;;;;;;27.58;2.97;;;;;;;5.06;100.00;99163.63;5203845;28;20033;-74
2022/11/22 01:57:07;;;;;;;25.80;2.53;;;;;;;5.04;100.00;99170.94;5192834;28;20420;-74
2022/11/22 01:59:43;;;;;;;13.32;2.28;;;;;;;5.00;100.00;99182.09;5201466;28;20426;-74
2022/11/22 02:02:14;;;;;;;15.68;3.60;;;;;;;4.97;100.00;99171.78;5203670;28;20025;-74
2022/11/22 02:04:46;;;;;;;16.65;3.22;;;;;;;4.95;100.00;99179.94;5203986;28;20028;-74
2022/11/22 02:07:19;;;;;;;19.67;2.40;;;;;;;4.93;100.00;99181.94;5202906;28;20029;-74
2022/11/22 02:09:54;;;;;;;13.65;2.53;;;;;;;4.90;100.00;99183.09;5203619;28;20432;-74
2022/11/22 02:12:45;;;;;;;22.65;4.22;;;;;;;4.82;100.00;99174.31;5202698;28;20037;-73
2022/11/22 02:15:18;;;;;;;26.73;2.78;;;;;;;4.79;100.00;99178.16;5203572;28;20021;-73
2022/11/22 02:17:52;;;;;;;33.05;4.45;;;;;;;4.80;100.00;99181.66;5202869;28;20037;-73
2022/11/22 02:20:23;;;;;;;27.83;2.72;;;;;;;4.76;100.00;99177.66;5203471;28;20045;-73
2022/11/22 02:23:16;;;;;;;17.75;3.08;;;;;;;4.74;100.00;99190.31;5203533;28;20108;-73
2022/11/22 02:25:56;;;;;;;24.30;3.33;;;;;;;4.71;100.00;99186.13;5199290;28;20021;-73
2022/11/22 02:28:43;;;;;;;22.35;3.40;;;;;;;4.66;100.00;99188.47;5189840;28;20515;-73
2022/11/22 02:31:36;;;;;;;13.65;2.58;;;;;;;4.63;100.00;99180.84;5198949;28;20564;-73
2022/11/22 02:34:08;;;;;;;16.55;2.50;;;;;;;4.62;100.00;99197.81;5203505;28;20455;-73
2022/11/22 02:36:43;;;;;;;23.95;3.28;;;;;;;4.64;100.00;99193.13;5203435;28;20467;-73
2022/11/22 02:39:17;;;;;;;13.10;2.77;;;;;;;4.60;100.00;99192.63;5202797;28;20038;-74
2022/11/22 02:41:48;;;;;;;14.02;1.92;;;;;;;4.62;100.00;99195.97;5203033;28;20272;-73
2022/11/22 02:44:20;;;;;;;15.65;2.50;;;;;;;4.57;100.00;99190.34;5190174;28;20543;-73
2022/11/22 02:46:54;;;;;;;26.15;3.42;;;;;;;4.56;100.00;99190.47;5199158;28;20040;-73
2022/11/22 02:49:25;;;;;;;;;;;;;;;4.52;100.00;99184.69;5203387;28;20247;-72
2022/11/22 02:51:56;;;;;;;21.38;3.42;;;;;;;4.47;100.00;99188.81;5202963;28;20453;-73
2022/11/22 02:54:32;;;;;;;20.65;3.72;;;;;;;4.45;100.00;99188.19;5203109;28;20022;-73
2022/11/22 02:57:03;;;;;;;13.15;2.42;;;;;;;4.43;100.00;99192.84;5202360;28;20026;-72
2022/11/22 02:59:33;;;;;;;16.17;2.25;;;;;;;4.37;100.00;99184.53;5203235;28;20075;-72
2022/11/22 03:02:04;;;;;;;22.10;2.17;;;;;;;4.33;100.00;99196.47;5202896;28;20021;-72
2022/11/22 03:04:35;;;;;;;17.70;2.72;;;;;;;4.29;100.00;99195.16;5202829;28;20017;-71
2022/11/22 03:07:05;;;;;;;11.73;1.98;;;;;;;4.23;100.00;99192.34;5202651;28;20105;-72
2022/11/22 03:09:36;;;;;;;16.67;2.53;;;;;;;4.19;100.00;99196.31;5202702;28;20160;-72
2022/11/22 03:12:07;;;;;;;13.65;2.30;;;;;;;4.11;100.00;99194.47;5202831;28;20036;-72
2022/11/22 03:14:37;;;;;;;16.70;3.70;;;;;;;4.02;100.00;99193.66;5202890;28;20360;-72
2022/11/22 03:17:08;;;;;;;10.98;2.00;;;;;;;3.99;100.00;99201.94;5202387;28;20399;-72
2022/11/22 03:19:39;;;;;;;8.73;1.85;;;;;;;3.94;100.00;99192.81;5202893;28;20025;-72
2022/11/22 03:22:09;;;;;;;21.30;2.38;;;;;;;3.90;100.00;99193.13;5202048;28;20064;-72
2022/11/22 03:24:40;;;;;;;15.43;2.13;;;;;;;3.87;100.00;99197.94;5201959;28;20028;-72
2022/11/22 03:27:10;;;;;;;6.97;1.92;;;;;;;3.87;100.00;99201.44;5199800;28;20056;-72
2022/11/22 03:29:41;;;;;;;11.02;2.00;;;;;;;3.85;100.00;99200.75;5202568;28;20501;-72
2022/11/22 03:32:11;;;;;;;18.10;2.30;;;;;;;3.86;100.00;99212.19;5199202;28;20112;-72
2022/11/22 03:34:42;;;;;;;18.52;2.53;;;;;;;3.88;100.00;99205.75;5202753;28;20486;-73
2022/11/22 03:37:12;;;;;;;20.98;2.40;;;;;;;3.84;100.00;99215.00;5201923;28;20044;-73
2022/11/22 03:39:42;;;;;;;14.55;2.45;;;;;;;3.78;100.00;99223.63;5202391;28;20029;-72
2022/11/22 03:42:13;;;;;;;15.55;3.97;;;;;;;3.71;100.00;99219.94;5203211;28;20028;-73
2022/11/22 03:44:44;;;;;;;12.05;1.60;;;;;;;3.60;100.00;99218.44;5203045;28;20025;-73
2022/11/22 03:47:14;;;;;;;10.20;3.08;;;;;;;3.62;100.00;99215.63;5191985;28;20075;-72
2022/11/22 03:49:45;;;;;;;10.70;2.05;;;;;;;3.67;100.00;99223.09;5202692;28;20037;-72
2022/11/22 03:52:15;;;;;;;8.20;1.77;;;;;;;3.71;100.00;99224.41;5206081;28;20057;-72
2022/11/22 03:54:46;;;;;;;52.75;3.75;;;;;;;3.72;100.00;99226.09;5206562;28;20108;-72
2022/11/22 03:57:16;;;;;;;10.45;1.90;;;;;;;3.81;100.00;99227.75;5206256;28;20030;-73
2022/11/22 03:59:47;;;;;;;6.88;1.63;;;;;;;3.90;100.00;99232.09;5205655;28;20143;-73
2022/11/22 04:02:17;;;;;;;21.80;2.33;;;;;;;3.87;100.00;99233.28;5206192;28;20029;-72
2022/11/22 04:04:47;;;;;;;14.52;2.10;;;;;;;3.87;100.00;99240.41;5205944;28;20026;-73
2022/11/22 04:07:18;;;;;;;18.70;2.63;;;;;;;3.86;100.00;99236.88;5205054;28;20475;-72
2022/11/22 04:09:48;;;;;;;14.13;4.38;;;;;;;3.87;100.00;99241.22;5206452;28;20383;-72
2022/11/22 04:12:19;;;;;;;17.02;1.92;;;;;;;3.88;100.00;99242.06;5202215;28;20026;-74
2022/11/22 04:15:07;;;;;;;11.93;1.88;;;;;;;3.87;100.00;99243.06;5196554;28;20438;-72
2022/11/22 04:17:43;;;;;;;14.52;2.60;;;;;;;3.81;100.00;99247.16;5205013;28;20032;-73
2022/11/22 04:23:07;;;;;;;10.85;2.22;;;;;;;3.85;100.00;99245.03;5205769;28;20104;-72
2022/11/22 04:25:41;;;;;;;17.73;3.03;;;;;;;3.80;100.00;99245.50;5202173;28;20510;-73
2022/11/22 04:28:13;;;;;;;19.33;2.95;;;;;;;3.78;100.00;99242.19;5191387;28;20096;-73
2022/11/22 04:33:32;;;;;;;14.32;2.47;;;;;;;3.68;100.00;99233.53;5205398;28;20021;-73
2022/11/22 04:36:03;;;;;;;14.13;1.90;;;;;;;3.66;100.00;99234.69;5205476;28;20025;-73
2022/11/22 04:38:34;;;;;;;13.30;2.10;;;;;;;3.66;100.00;99224.91;5204983;28;20040;-72
2022/11/22 04:41:04;;;;;;;14.60;2.80;;;;;;;3.64;100.00;99218.94;5205629;28;20029;-73
2022/11/22 04:46:25;;;;;;;15.60;2.10;;;;;;;3.61;100.00;99217.47;5205161;28;20036;-72
2022/11/22 04:48:55;;;;;;;9.48;1.77;;;;;;;3.58;100.00;99231.03;5204933;28;20021;-73
2022/11/22 04:54:14;;;;;;;22.80;3.40;;;;;;;3.49;100.00;99226.69;5206059;28;20264;-72
2022/11/22 04:56:45;;;;;;;10.73;2.00;;;;;;;3.47;100.00;99230.50;5206091;28;20071;-72
2022/11/22 04:59:15;;;;;;;13.23;2.15;;;;;;;3.41;100.00;99233.75;5205648;28;20116;-73
2022/11/22 05:01:45;;;;;;;16.05;2.33;;;;;;;3.44;100.00;99233.47;5204898;28;20049;-72
2022/11/22 05:04:16;;;;;;;12.00;2.65;;;;;;;3.40;100.00;99238.25;5203306;28;20040;-73
2022/11/22 05:06:46;;;;;;;16.05;2.00;;;;;;;3.40;100.00;99248.84;5204648;28;20021;-72
2022/11/22 05:09:17;;;;;;;8.85;2.70;;;;;;;3.43;100.00;99239.75;5204498;28;20095;-73
2022/11/22 05:11:47;;;;;;;16.35;2.42;;;;;;;3.47;100.00;99236.63;5204867;28;20479;-73
2022/11/22 05:14:18;;;;;;;10.10;2.15;;;;;;;3.51;100.00;99237.13;5204648;28;20411;-74
2022/11/22 05:16:48;;;;;;;22.10;3.70;;;;;;;3.51;100.00;99234.47;5204033;28;20021;-74
2022/11/22 05:19:18;;;;;;;12.93;1.98;;;;;;;3.53;100.00;99243.94;5203221;28;20028;-73
2022/11/22 05:21:49;;;;;;;15.57;2.35;;;;;;;3.53;100.00;99232.50;5203640;28;20028;-73
2022/11/22 05:24:19;;;;;;;12.35;2.42;;;;;;;3.53;100.00;99233.34;5204608;28;20120;-73
2022/11/22 05:26:50;;;;;;;19.52;2.38;;;;;;;3.50;100.00;99224.84;5197919;28;20028;-73
2022/11/22 05:29:20;;;;;;;16.45;2.25;;;;;;;3.42;100.00;99224.84;5192866;28;20026;-72
2022/11/22 05:31:51;;;;;;;16.83;3.33;;;;;;;3.40;100.00;99226.81;5200949;28;20072;-73
2022/11/22 05:34:21;;;;;;;16.33;2.55;;;;;;;3.39;100.00;99225.97;5205092;28;20118;-73
2022/11/22 05:36:52;;;;;;;17.15;2.75;;;;;;;3.28;100.00;99223.63;5203760;28;20135;-73
2022/11/22 05:39:22;;;;;;;13.48;2.58;;;;;;;3.28;100.00;99231.56;5202992;28;20053;-72
2022/11/22 05:41:55;;;;;;;18.42;5.70;;;;;;;3.28;100.00;99227.09;5203711;28;20140;-73
2022/11/22 05:44:26;;;;;;;14.93;3.45;;;;;;;3.26;100.00;99226.44;5204778;28;20062;-73
2022/11/22 05:46:56;;;;;;;19.60;3.40;;;;;;;3.27;100.00;99228.09;5203683;28;20433;-73
2022/11/22 05:49:27;;;;;;;16.48;3.17;;;;;;;3.25;100.00;99230.06;5203699;28;20021;-73
2022/11/22 05:51:57;;;;;;;15.10;2.90;;;;;;;3.29;100.00;99238.53;5196109;28;20022;-73
2022/11/22 05:54:29;;;;;;;12.20;4.18;;;;;;;3.32;100.00;99222.31;5198294;28;20029;-74
2022/11/22 05:56:59;;;;;;;19.35;3.92;;;;;;;3.33;100.00;99232.75;5203578;28;20104;-73
2022/11/22 05:59:29;;;;;;;17.42;3.60;;;;;;;3.37;100.00;99227.97;5203871;28;20109;-74
2022/11/22 06:02:00;;;;;;;15.15;3.95;;;;;;;3.51;100.00;99223.84;5204013;28;20108;-73
2022/11/22 06:04:30;;;;;;;31.27;6.43;;;;;;;3.58;100.00;99233.69;5203567;28;20048;-73
2022/11/22 06:07:01;;;;;;;12.18;3.22;;;;;;;3.72;100.00;99236.72;5203133;28;20029;-73
2022/11/22 06:09:32;;;;;;;21.85;3.45;;;;;;;3.83;100.00;99234.56;5203527;28;20543;-73
2022/11/22 06:12:02;;;;;;;19.75;3.47;;;;;;;3.93;100.00;99236.25;5203777;28;20037;-73
2022/11/22 06:14:33;;;;;;;28.10;3.38;;;;;;;4.00;100.00;99243.38;5203332;28;20033;-74
2022/11/22 06:17:03;;;;;;;23.85;3.13;;;;;;;4.07;100.00;99244.41;5202889;28;20064;-74
2022/11/22 06:19:34;;;;;;;19.05;3.15;;;;;;;4.13;100.00;99241.09;5203420;28;20017;-74
2022/11/22 06:22:05;;;;;;;18.33;3.05;;;;;;;4.19;100.00;99244.91;5203710;28;20021;-74
2022/11/22 06:24:35;;;;;;;19.10;3.35;;;;;;;4.21;100.00;99250.88;5202072;28;20096;-74
2022/11/22 06:27:05;;;;;;;19.38;3.30;;;;;;;4.24;100.00;99250.56;5194410;28;20526;-73
2022/11/22 06:29:36;;;;;;;11.27;2.60;;;;;;;4.29;100.00;99256.22;5194333;28;20346;-73
2022/11/22 06:32:06;;;;;;;15.35;3.35;;;;;;;4.31;100.00;99250.72;5199747;28;20060;-73
2022/11/22 06:34:37;;;;;;;12.02;2.63;;;;;;;4.30;100.00;99249.06;5203399;28;20070;-73
2022/11/22 06:37:07;;;;;;;10.25;2.97;;;;;;;4.34;100.00;99248.59;5202617;28;20065;-73
2022/11/22 06:39:38;;;;;;;14.55;3.35;;;;;;;4.39;100.00;99256.06;5202864;28;20037;-74
2022/11/22 06:42:08;;;;;;;10.05;2.60;;;;;;;4.42;100.00;99258.41;5202677;28;20029;-73
2022/11/22 06:44:38;;;;;;;10.15;2.45;;;;;;;4.47;100.00;99258.72;5203041;28;20390;-73
2022/11/22 06:47:09;;;;;;;15.05;2.78;;;;;;;4.49;100.00;99258.56;5202451;28;20032;-73
2022/11/22 06:49:39;;;;;;;16.52;4.43;;;;;;;4.50;100.00;99254.91;5202694;28;20025;-73
2022/11/22 06:52:10;;;;;;;18.73;3.17;;;;;;;4.53;100.00;99255.41;5202946;28;20022;-72
2022/11/22 06:54:40;;;;;;;11.63;2.90;;;;;;;4.56;100.00;99259.53;5202411;28;20025;-72
2022/11/22 06:57:14;;;;;;;9.40;2.67;;;;;;;4.59;100.00;99261.88;5202437;28;20430;-73
2022/11/22 06:59:44;;;;;;;8.80;2.28;;;;;;;4.59;100.00;99261.88;5202660;28;20072;-72
2022/11/22 07:02:15;;;;;;;9.70;2.83;;;;;;;4.64;100.00;99260.38;5202816;28;20049;-72
2022/11/22 07:04:45;;;;;;;11.20;2.65;;;;;;;4.69;100.00;99257.22;5202855;28;20507;-72
2022/11/22 07:07:15;;;;;;;10.43;2.72;;;;;;;4.73;100.00;99263.84;5202122;28;20026;-72
2022/11/22 07:09:46;;;;;;;13.15;2.63;;;;;;;4.75;100.00;99259.19;5202767;28;20086;-72
2022/11/22 07:12:16;;;;;;;13.18;2.65;;;;;;;4.76;100.00;99265.34;5202756;28;20487;-73
2022/11/22 07:14:47;;;;;;;15.68;2.80;;;;;;;4.76;100.00;99263.50;5202713;28;20079;-72
2022/11/22 07:17:17;;;;;;;15.57;3.30;;;;;;;4.80;100.00;99264.00;5202173;28;20616;-72
2022/11/22 07:19:47;;;;;;;13.30;2.60;;;;;;;4.81;100.00;99265.66;5202452;28;20752;-73
2022/11/22 07:22:18;;;;;;;14.70;3.63;;;;;;;4.81;100.00;99273.63;5202858;28;20014;-72
2022/11/22 07:24:48;;;;;;;12.98;4.00;;;;;;;4.83;100.00;99272.47;5200975;28;20036;-72
2022/11/22 07:27:19;;;;;;;20.60;4.18;;;;;;;4.85;100.00;99277.63;5204210;28;20021;-72
2022/11/22 07:29:49;;;;;;;14.70;3.67;;;;;;;4.86;100.00;99272.13;5206298;28;20029;-72
2022/11/22 07:32:20;;;;;;;10.68;2.35;;;;;;;4.88;100.00;99278.13;5201564;28;20076;-72
2022/11/22 07:34:50;;;;;;;14.20;2.33;;;;;;;4.93;100.00;99272.31;5206403;28;20036;-72
2022/11/22 07:37:20;;;;;;;11.80;3.08;;;;;;;4.94;100.00;99269.47;5205936;28;20025;-73
2022/11/22 07:39:51;;;;;;;6.57;2.40;;;;;;;4.98;100.00;99277.94;5206214;28;20033;-72
2022/11/22 07:42:21;;;;;;;10.25;3.78;;;;;;;4.99;100.00;99273.47;5206450;28;20014;-72
2022/11/22 07:44:52;;;;;;;17.83;2.78;;;;;;;5.02;100.00;99281.06;5205611;28;20080;-72
2022/11/22 07:47:23;;;;;;;10.85;2.63;;;;;;;5.05;100.00;99280.75;5205892;28;20049;-72
2022/11/22 07:49:53;;;;;;;12.00;3.25;;;;;;;5.07;100.00;99284.06;5205918;28;20446;-73
2022/11/22 07:52:23;;;;;;;9.57;2.33;;;;;;;5.10;100.00;99286.38;5201821;28;20506;-72
2022/11/22 07:54:54;;;;;;;10.18;4.10;;;;;;;5.12;100.00;99284.38;5204482;28;20300;-72
2022/11/22 07:57:24;;;;;;;8.55;2.70;;;;;;;5.16;100.00;99283.06;5203985;28;20071;-72
2022/11/22 07:59:55;;;;;;;14.20;3.42;;;;;;;5.17;100.00;99282.03;5191293;28;20049;-72
2022/11/22 08:02:26;;;;;;;11.95;2.65;;;;;;;5.19;100.00;99288.03;5204409;28;20163;-72
2022/11/22 08:04:56;;;;;;;10.30;2.22;;;;;;;5.25;100.00;99290.00;5204855;28;20025;-73
2022/11/22 08:07:26;;;;;;;10.68;2.88;;;;;;;5.24;100.00;99283.03;5204310;28;20036;-72
2022/11/22 08:09:57;;;;;;;14.50;2.53;;;;;;;5.25;100.00;99281.22;5204290;28;20026;-72
2022/11/22 08:12:27;;;;;;;11.18;2.47;;;;;;;5.27;100.00;99281.84;5204040;28;20459;-72
2022/11/22 08:14:58;;;;;;;7.68;3.38;;;;;;;5.27;100.00;99277.41;5204204;28;20475;-72
2022/11/22 08:17:28;;;;;;;10.88;2.58;;;;;;;5.25;100.00;99275.88;5204007;28;20053;-73
2022/11/22 08:19:59;;;;;;;15.13;2.70;;;;;;;5.24;100.00;99280.38;5203956;28;20119;-73
2022/11/22 08:22:29;;;;;;;14.02;2.75;;;;;;;5.27;100.00;99282.72;5203679;28;20097;-72
2022/11/22 08:25:00;;;;;;;11.73;3.10;;;;;;;5.32;100.00;99280.38;5200528;28;20030;-72
2022/11/22 08:27:30;;;;;;;8.32;2.80;;;;;;;5.35;100.00;99280.00;5193611;28;20025;-72
2022/11/22 08:30:01;;;;;;;12.05;2.17;;;;;;;5.36;100.00;99279.00;5198632;28;20057;-72
2022/11/22 08:32:31;;;;;;;11.50;2.30;;;;;;;5.38;100.00;99274.38;5200021;28;20053;-73
2022/11/22 08:35:02;;;;;;;9.07;2.20;;;;;;;5.40;100.00;99277.66;5204308;28;20025;-72
2022/11/22 08:37:33;;;;;;;9.88;1.95;;;;;;;5.47;100.00;99269.81;5203205;28;20391;-72
2022/11/22 08:40:04;;;;;;;9.05;2.08;;;;;;;5.49;100.00;99267.84;5203723;28;20514;-72
2022/11/22 08:42:35;;;;;;;12.98;4.15;;;;;;;5.49;100.00;99272.34;5203652;28;20394;-73
2022/11/22 08:45:06;;;;;;;9.25;2.05;;;;;;;5.52;100.00;99274.63;5203118;28;20021;-72
2022/11/22 08:47:37;;;;;;;13.48;2.47;;;;;;;5.57;100.00;99274.94;5203461;28;20029;-73
2022/11/22 08:50:08;;;;;;;10.98;2.50;;;;;;;5.57;100.00;99270.47;5203285;28;20505;-73
2022/11/22 08:52:38;;;;;;;12.38;2.88;;;;;;;5.58;100.00;99280.13;5203159;28;20083;-72
2022/11/22 08:55:09;;;;;;;12.30;3.13;;;;;;;5.58;100.00;99274.78;5203731;28;20048;-72
2022/11/22 08:57:39;;;;;;;11.75;2.80;;;;;;;5.62;100.00;99276.13;5202400;28;20108;-72
2022/11/22 09:00:10;;;;;;;12.38;3.17;;;;;;;5.62;100.00;99270.78;5203711;28;20471;-72
2022/11/22 09:02:41;;;;;;;15.13;2.88;;;;;;;5.69;100.00;99276.25;5203065;28;20044;-72
2022/11/22 09:05:11;;;;;;;15.57;4.25;;;;;;;5.66;100.00;99271.25;5203586;28;20029;-72
2022/11/22 09:07:42;;;;;;;10.00;3.75;;;;;;;5.65;100.00;99269.59;5202697;28;20426;-73
2022/11/22 09:10:12;;;;;;;11.93;3.65;;;;;;;5.67;100.00;99265.78;5203057;28;20365;-73
2022/11/22 09:12:44;;;;;;;23.30;5.80;;;;;;;5.67;100.00;99278.22;5202851;28;20389;-73
2022/11/22 09:15:15;;;;;;;20.38;4.32;;;;;;;5.69;100.00;99269.09;5203523;28;20025;-72
2022/11/22 09:17:45;;;;;;;14.57;3.83;;;;;;;5.72;100.00;99270.56;5202709;28;20103;-72
2022/11/22 09:20:16;;;;;;;10.20;3.05;;;;;;;5.70;100.00;99273.41;5203005;28;20028;-72
2022/11/22 09:22:47;;;;;;;9.57;3.03;;;;;;;5.78;100.00;99266.41;5193392;28;20030;-72
2022/11/22 09:25:17;;;;;;;12.90;2.72;;;;;;;5.80;100.00;99273.19;5195802;28;20270;-72
2022/11/22 09:27:47;;;;;;;8.48;2.38;;;;;;;5.83;100.00;99264.88;5202405;28;20025;-72
2022/11/22 09:30:19;;;;;;;12.23;2.55;;;;;;;5.86;100.00;99267.16;5202418;28;20025;-73
2022/11/22 09:32:50;;;;;;;10.63;2.65;;;;;;;5.87;100.00;99268.00;5199546;28;20051;-72
2022/11/22 09:35:20;;;;;;;7.32;2.60;;;;;;;5.91;100.00;99269.31;5202492;28;20045;-72
2022/11/22 09:37:51;;;;;;;13.75;2.53;;;;;;;5.84;100.00;99261.19;5202937;28;20071;-72
2022/11/22 09:40:21;;;;;;;12.45;2.67;;;;;;;5.88;100.00;99267.00;5204046;28;20022;-73
2022/11/22 09:43:14;;;;;;;9.85;2.47;;;;;;;5.86;100.00;99271.66;5202960;28;20044;-72
2022/11/22 09:46:06;;;;;;;11.05;2.55;;;;;;;5.83;100.00;99270.19;5202488;28;20017;-72
2022/11/22 09:48:51;;;;;;;13.00;2.60;;;;;;;5.86;100.00;99274.31;5188617;28;20029;-72
2022/11/22 09:51:36;;;;;;;11.68;2.28;;;;;;;5.87;100.00;99268.84;5200760;28;20075;-73
2022/11/22 09:54:19;;;;;;;6.68;2.28;;;;;;;5.89;100.00;99271.31;5202292;28;20364;-73
2022/11/22 09:56:53;;;;;;;8.52;2.20;;;;;;;5.94;100.00;99259.19;5202153;28;20108;-72
2022/11/22 09:59:29;;;;;;;7.68;1.60;;;;;;;5.86;100.00;99263.69;5202282;28;20032;-72
2022/11/22 10:02:13;;;;;;;6.15;1.95;;;;;;;5.86;100.00;99266.34;5201920;28;20029;-72
2022/11/22 10:04:56;;;;;;;11.32;1.63;;;;;;;5.87;100.00;99258.19;5195054;28;20036;-72
2022/11/22 10:07:34;;;;;;;4.07;1.83;;;;;;;5.89;100.00;99263.34;5197197;28;20103;-72
2022/11/22 10:10:11;;;;;;;9.68;1.75;;;;;;;5.91;100.00;99259.50;5202263;28;20022;-72
2022/11/22 10:12:45;;;;;;;5.88;1.77;;;;;;;5.93;100.00;99252.19;5199779;28;20086;-73
2022/11/22 10:15:48;;;;;;;10.40;2.85;;;;;;;5.97;100.00;99256.19;5202023;28;20029;-73
2022/11/22 10:18:30;;;;;;;5.40;1.77;;;;;;;5.94;100.00;99255.69;5201719;28;20033;-73
2022/11/22 10:21:01;;;;;;;2.63;1.30;;;;;;;6.04;100.00;99258.13;5201572;28;20014;-73
2022/11/22 10:23:33;;;;;;;5.00;1.58;;;;;;;6.07;100.00;99260.41;5201770;28;20056;-73
2022/11/22 10:26:13;;;;;;;5.13;1.73;;;;;;;6.14;100.00;99259.56;5198639;28;20025;-73
2022/11/22 10:28:47;;;;;;;7.10;1.75;;;;;;;6.17;100.00;99258.34;5188458;28;20034;-73
2022/11/22 10:31:21;;;;;;;4.60;1.50;;;;;;;6.26;100.00;99261.81;5197858;28;20034;-73
2022/11/22 10:34:01;;;;;;;9.95;3.08;;;;;;;6.21;100.00;99255.16;5201615;28;20029;-73
2022/11/22 10:36:52;;;;;;;6.47;1.33;;;;;;;6.22;100.00;99253.34;5201575;28;20557;-73
2022/11/22 10:39:25;;;;;;;9.23;2.67;;;;;;;6.26;100.00;99240.50;5201929;28;20509;-73
2022/11/22 10:42:24;;;;;;;4.97;1.55;;;;;;;6.32;100.00;99239.78;5200838;28;20044;-73
2022/11/22 10:45:19;;;;;;;11.32;2.75;;;;;;;6.43;100.00;99239.38;5201675;28;20072;-72
2022/11/22 10:48:15;;;;;;;4.15;1.67;;;;;;;6.46;100.00;99231.84;5201518;28;20037;-72
2022/11/22 10:50:51;;;;;;;5.60;1.33;;;;;;;6.59;100.00;99227.75;5201838;28;20099;-72
2022/11/22 10:53:21;;;;;;;3.53;1.40;;;;;;;6.59;100.00;99230.44;5201362;28;20112;-72
2022/11/22 10:56:25;;;;;;;4.82;1.27;;;;;;;6.62;100.00;99228.22;5201384;28;20116;-72
2022/11/22 10:59:17;;;;;;;7.82;1.75;;;;;;;6.65;100.00;99227.03;5201889;28;20040;-73
2022/11/22 11:01:59;;;;;;;9.93;1.35;;;;;;;6.68;100.00;99229.34;5204398;28;20029;-72
2022/11/22 11:04:34;;;;;;;2.47;1.05;;;;;;;6.66;100.00;99224.19;5205665;28;20095;-72
2022/11/22 11:07:10;;;;;;;4.25;1.23;;;;;;;6.69;100.00;99217.69;5205029;28;20051;-72
2022/11/22 11:09:56;;;;;;;5.45;1.08;;;;;;;6.70;100.00;99214.81;5205901;28;20123;-72
2022/11/22 11:12:43;;;;;;;4.35;1.13;;;;;;;6.78;100.00;99227.25;5205695;28;20422;-73
2022/11/22 11:15:23;;;;;;;7.55;1.50;;;;;;;6.85;100.00;99220.19;5206267;28;20029;-72
2022/11/22 11:18:00;;;;;;;3.00;1.08;;;;;;;6.85;100.00;99212.19;5205305;28;20022;-73
2022/11/22 11:20:36;;;;;;;3.13;1.10;;;;;;;6.86;100.00;99203.16;5206127;28;20411;-72
2022/11/22 11:23:08;;;;;;;4.85;1.38;;;;;;;6.90;100.00;99212.47;5205277;28;20112;-73
2022/11/22 11:25:42;;;;;;;7.10;1.20;;;;;;;6.89;100.00;99208.16;5202235;28;20534;-73
2022/11/22 11:28:15;;;;;;;3.78;1.30;;;;;;;6.97;100.00;99204.56;5205215;28;20166;-72
2022/11/22 11:30:52;;;;;;;8.48;1.55;;;;;;;7.03;100.00;99206.50;5204491;28;20029;-73
2022/11/22 11:33:27;;;;;;;5.28;1.30;;;;;;;7.07;100.00;99217.63;5203400;28;20116;-72
2022/11/22 11:36:10;;;;;;;3.78;1.13;;;;;;;7.11;100.00;99224.25;5204794;28;20028;-73
2022/11/22 11:38:41;;;;;;;2.30;0.90;;;;;;;7.11;100.00;99224.25;5204681;28;20406;-72
2022/11/22 11:41:31;;;;;;;4.03;1.05;;;;;;;7.20;100.00;99218.63;5204515;28;20109;-72
2022/11/22 11:44:04;;;;;;;2.70;0.90;;;;;;;7.16;100.00;99221.84;5194916;28;20032;-73
2022/11/22 11:46:40;;;;;;;3.80;1.25;;;;;;;7.16;100.00;99221.84;5204518;28;20022;-73
2022/11/22 11:49:21;;;;;;;1.58;0.73;;;;;;;7.17;100.00;99221.66;5203898;28;20130;-73
2022/11/22 11:51:57;;;;;;;3.90;1.00;;;;;;;7.11;100.00;99219.75;5204713;28;20029;-72
2022/11/22 11:54:31;;;;;;;2.92;0.98;;;;;;;7.09;100.00;99213.78;5204723;28;20029;-73
2022/11/22 11:57:03;;;;;;;2.13;0.70;;;;;;;7.07;100.00;99213.09;5204300;28;20040;-72
2022/11/22 11:59:36;;;;;;;5.80;0.85;;;;;;;7.03;100.00;99211.00;5205012;28;20028;-72
2022/11/22 12:02:21;;;;;;;1.02;0.65;;;;;;;7.04;100.00;99220.66;5204551;28;20078;-72
2022/11/22 12:04:55;;;;;;;3.25;0.73;;;;;;;6.99;100.00;99208.72;5192299;28;20068;-72